createdAt,value
2023-03-07T00:01:36.589Z,17.15
2023-03-07T00:04:42.344Z,12.60
2023-03-07T00:07:48.072Z,13.15
2023-03-07T00:10:54.330Z,10.18
2023-03-07T00:14:03.021Z,11.05
2023-03-07T00:17:13.399Z,13.13
2023-03-07T00:20:21.324Z,12.38
2023-03-07T00:23:29.541Z,16.27
2023-03-07T00:26:39.873Z,16.30
2023-03-07T00:29:48.604Z,14.38
2023-03-07T00:32:57.584Z,16.83
2023-03-07T00:36:04.090Z,14.55
2023-03-07T00:39:10.825Z,13.38
2023-03-07T00:42:20.381Z,15.23
2023-03-07T00:45:31.100Z,17.90
2023-03-07T00:48:38.601Z,10.30
2023-03-07T00:51:46.011Z,10.30
2023-03-07T00:54:51.509Z,9.40
2023-03-07T00:57:58.528Z,11.02
2023-03-07T01:01:13.270Z,11.43
2023-03-07T01:04:19.113Z,9.07
2023-03-07T01:07:25.449Z,7.30
2023-03-07T01:10:34.345Z,10.77
2023-03-07T01:13:39.748Z,11.95
2023-03-07T01:16:50.579Z,10.10
2023-03-07T01:19:57.454Z,14.65
2023-03-07T01:23:05.092Z,12.10
2023-03-07T01:26:10.320Z,6.15
2023-03-07T01:29:20.031Z,12.23
2023-03-07T01:32:30.164Z,13.38
2023-03-07T01:35:40.107Z,11.63
2023-03-07T01:38:45.452Z,11.75
2023-03-07T01:41:52.922Z,11.95
2023-03-07T01:45:02.374Z,8.57
2023-03-07T01:48:10.572Z,7.85
2023-03-07T01:51:18.156Z,9.75
2023-03-07T01:54:24.747Z,9.18
2023-03-07T01:57:31.782Z,8.27
2023-03-07T02:00:39.053Z,7.72
2023-03-07T02:03:50.911Z,10.18
2023-03-07T02:06:56.660Z,9.48
2023-03-07T02:10:01.747Z,8.35
2023-03-07T02:13:07.300Z,7.53
2023-03-07T02:16:12.482Z,8.90
2023-03-07T02:19:31.686Z,6.65
2023-03-07T02:22:36.916Z,11.43
2023-03-07T02:25:45.641Z,8.38
2023-03-07T02:28:55.276Z,8.52
2023-03-07T02:32:03.389Z,9.25
2023-03-07T02:35:14.953Z,8.52
2023-03-07T02:41:28.701Z,11.77
2023-03-07T02:44:38.358Z,8.63
2023-03-07T02:47:47.983Z,11.35
2023-03-07T02:50:53.534Z,8.68
2023-03-07T02:53:58.901Z,12.13
2023-03-07T02:57:11.308Z,11.63
2023-03-07T03:00:21.130Z,11.05
2023-03-07T03:03:31.740Z,10.18
2023-03-07T03:06:39.531Z,6.85
2023-03-07T03:09:47.662Z,10.52
2023-03-07T03:12:55.998Z,11.35
2023-03-07T03:16:06.910Z,11.13
2023-03-07T03:19:12.330Z,11.80
2023-03-07T03:22:20.961Z,11.38
2023-03-07T03:25:27.570Z,10.57
2023-03-07T03:28:33.027Z,10.13
2023-03-07T03:31:43.403Z,10.75
2023-03-07T03:34:54.202Z,12.82
2023-03-07T03:37:59.263Z,13.52
2023-03-07T03:41:07.773Z,13.38
2023-03-07T03:44:12.838Z,14.65
2023-03-07T03:47:22.773Z,10.20
2023-03-07T03:50:28.820Z,11.77
2023-03-07T03:53:35.154Z,15.88
2023-03-07T03:56:40.578Z,15.27
2023-03-07T03:59:49.464Z,15.15
2023-03-07T04:03:00.715Z,17.15
2023-03-07T04:06:08.254Z,17.38
2023-03-07T04:09:13.717Z,13.65
2023-03-07T04:12:19.493Z,16.33
2023-03-07T04:15:28.500Z,14.60
2023-03-07T04:18:38.494Z,14.57
2023-03-07T04:21:43.768Z,16.08
2023-03-07T04:25:06.448Z,16.08
2023-03-07T04:28:12.892Z,18.90
2023-03-07T04:31:21.563Z,12.73
2023-03-07T04:34:29.631Z,14.73
2023-03-07T04:37:35.446Z,19.27
2023-03-07T04:40:42.357Z,17.77
2023-03-07T04:43:48.987Z,19.73
2023-03-07T04:46:57.244Z,18.42
2023-03-07T04:50:08.617Z,16.35
2023-03-07T04:53:21.297Z,16.58
2023-03-07T04:56:28.794Z,20.08
2023-03-07T04:59:39.258Z,21.15
2023-03-07T05:02:45.444Z,14.05
2023-03-07T05:05:53.192Z,16.08
2023-03-07T05:08:59.920Z,16.25
2023-03-07T05:12:05.876Z,12.43
2023-03-07T05:15:13.784Z,16.90
2023-03-07T05:18:20.864Z,15.52
2023-03-07T05:21:33.251Z,13.90
2023-03-07T05:24:39.934Z,13.82
2023-03-07T05:27:49.464Z,14.15
2023-03-07T05:30:56.819Z,14.85
2023-03-07T05:34:02.528Z,15.98
2023-03-07T05:37:13.277Z,12.18
2023-03-07T05:40:21.835Z,15.57
2023-03-07T05:43:31.839Z,15.05
2023-03-07T05:46:37.633Z,15.75
2023-03-07T05:49:42.786Z,15.25
2023-03-07T05:52:53.280Z,14.57
2023-03-07T05:55:58.408Z,14.02
2023-03-07T05:59:04.322Z,19.33
2023-03-07T06:02:09.600Z,15.43
2023-03-07T06:05:28.728Z,16.27
2023-03-07T06:08:37.855Z,13.63
2023-03-07T06:11:46.445Z,15.98
2023-03-07T06:14:51.538Z,15.07
2023-03-07T06:18:02.560Z,17.25
2023-03-07T06:21:12.237Z,15.38
2023-03-07T06:24:22.834Z,15.63
2023-03-07T06:27:43.094Z,15.40
2023-03-07T06:30:55.729Z,16.75
2023-03-07T06:34:07.294Z,15.30
2023-03-07T06:37:22.126Z,16.90
2023-03-07T06:40:34.252Z,18.60
2023-03-07T06:43:46.098Z,21.25
2023-03-07T06:46:58.581Z,15.75
2023-03-07T06:53:22.962Z,15.05
2023-03-07T06:56:35.154Z,21.23
2023-03-07T06:59:44.472Z,22.80
2023-03-07T07:02:52.043Z,19.77
2023-03-07T07:05:59.294Z,24.38
2023-03-07T07:09:07.851Z,25.88
2023-03-07T07:12:19.293Z,22.20
2023-03-07T07:15:29.656Z,17.90
2023-03-07T07:18:35.167Z,28.35
2023-03-07T07:21:42.999Z,22.50
2023-03-07T07:24:54.299Z,20.25
2023-03-07T07:28:02.793Z,18.63
2023-03-07T07:31:08.392Z,23.83
2023-03-07T07:34:17.595Z,18.05
2023-03-07T07:37:27.971Z,17.75
2023-03-07T07:43:53.365Z,22.25
2023-03-07T07:47:04.620Z,17.33
2023-03-07T07:50:10.280Z,22.45
2023-03-07T07:53:17.286Z,19.20
2023-03-07T07:56:30.384Z,18.70
2023-03-07T07:59:41.255Z,21.95
2023-03-07T08:02:46.811Z,23.08
2023-03-07T08:05:53.274Z,23.15
2023-03-07T08:09:00.358Z,19.08
2023-03-07T08:12:06.283Z,22.65
2023-03-07T08:15:21.879Z,16.58
2023-03-07T08:18:33.218Z,15.02
2023-03-07T08:21:39.389Z,25.92
2023-03-07T08:24:49.330Z,20.77
2023-03-07T08:27:58.255Z,25.65
2023-03-07T08:31:15.916Z,24.75
2023-03-07T08:34:25.456Z,22.83
2023-03-07T08:37:31.465Z,24.05
2023-03-07T08:40:39.389Z,24.08
2023-03-07T08:43:46.584Z,26.90
2023-03-07T08:46:54.271Z,17.50
2023-03-07T08:50:00.454Z,12.95
2023-03-07T08:53:06.150Z,16.15
2023-03-07T08:56:12.168Z,16.67
2023-03-07T08:59:20.426Z,16.23
2023-03-07T09:02:29.500Z,15.77
2023-03-07T09:05:39.593Z,15.68
2023-03-07T09:08:48.942Z,13.10
2023-03-07T09:11:57.815Z,15.57
2023-03-07T09:15:07.891Z,15.88
2023-03-07T09:18:18.538Z,14.95
2023-03-07T09:21:26.155Z,16.10
2023-03-07T09:24:35.074Z,17.38
2023-03-07T09:27:45.871Z,15.82
2023-03-07T09:30:53.356Z,14.43
2023-03-07T09:34:07.103Z,14.10
2023-03-07T09:37:16.880Z,15.30
2023-03-07T09:40:28.364Z,14.15
2023-03-07T09:43:39.962Z,11.02
2023-03-07T09:46:51.906Z,13.38
2023-03-07T09:50:04.514Z,11.63
2023-03-07T09:53:16.540Z,16.60
2023-03-07T09:56:24.914Z,13.20
2023-03-07T09:59:39.926Z,16.38
2023-03-07T10:02:52.675Z,13.10
2023-03-07T10:06:14.195Z,10.52
2023-03-07T10:09:22.758Z,13.55
2023-03-07T10:12:44.165Z,9.65
2023-03-07T10:15:52.879Z,12.63
2023-03-07T10:19:05.859Z,14.70
2023-03-07T10:22:19.507Z,12.95
2023-03-07T10:25:31.808Z,13.75
2023-03-07T10:28:42.708Z,12.90
2023-03-07T10:32:10.350Z,16.15
2023-03-07T10:35:21.780Z,11.65
2023-03-07T10:38:34.997Z,13.45
2023-03-07T10:41:42.353Z,10.40
2023-03-07T10:44:55.159Z,11.45
2023-03-07T10:48:01.898Z,8.75
2023-03-07T10:51:17.946Z,13.65
2023-03-07T10:54:33.861Z,11.00
2023-03-07T10:57:42.713Z,12.05
2023-03-07T11:01:01.548Z,14.48
2023-03-07T11:04:09.625Z,9.57
2023-03-07T11:07:31.319Z,12.13
2023-03-07T11:10:50.717Z,9.43
2023-03-07T11:14:10.842Z,13.00
2023-03-07T11:17:22.656Z,9.43
2023-03-07T11:20:30.756Z,9.85
2023-03-07T11:23:39.483Z,11.48
2023-03-07T11:26:53.011Z,10.70
2023-03-07T11:30:20.343Z,10.57
2023-03-07T11:33:33.717Z,11.18
2023-03-07T11:36:39.961Z,9.75
2023-03-07T11:39:49.351Z,7.88
2023-03-07T11:43:03.822Z,10.23
2023-03-07T11:46:15.686Z,9.00
2023-03-07T11:49:32.356Z,8.32
2023-03-07T11:52:48.857Z,8.77
2023-03-07T11:56:03.491Z,9.32
2023-03-07T11:59:26.126Z,8.48
2023-03-07T12:02:54.246Z,8.60
2023-03-07T12:06:09.028Z,9.20
2023-03-07T12:09:32.768Z,7.45
2023-03-07T12:12:43.178Z,17.25
2023-03-07T12:15:53.126Z,7.10
2023-03-07T12:19:15.183Z,8.45
2023-03-07T12:22:34.971Z,7.20
2023-03-07T12:25:45.172Z,5.35
2023-03-07T12:28:54.945Z,7.75
2023-03-07T12:32:02.032Z,6.85
2023-03-07T12:35:11.104Z,6.63
2023-03-07T12:38:28.555Z,6.43
2023-03-07T12:41:48.254Z,6.38
2023-03-07T12:44:57.687Z,4.55
2023-03-07T12:48:08.117Z,6.07
2023-03-07T12:51:18.371Z,6.55
2023-03-07T12:54:25.597Z,5.07
2023-03-07T12:57:41.913Z,4.35
2023-03-07T13:00:51.835Z,4.43
2023-03-07T13:04:01.527Z,5.90
2023-03-07T13:07:10.828Z,5.20
2023-03-07T13:10:21.724Z,4.47
2023-03-07T13:13:47.745Z,6.38
2023-03-07T13:16:56.397Z,3.80
2023-03-07T13:20:05.230Z,6.65
2023-03-07T13:23:30.191Z,3.42
2023-03-07T13:26:41.607Z,7.22
2023-03-07T13:30:06.268Z,2.88
2023-03-07T13:33:26.103Z,5.63
2023-03-07T13:36:46.338Z,2.35
2023-03-07T13:40:07.126Z,11.90
2023-03-07T13:43:28.557Z,3.13
2023-03-07T13:47:02.887Z,4.88
2023-03-07T13:50:30.096Z,1.58
2023-03-07T13:53:46.837Z,6.00
2023-03-07T13:56:52.642Z,2.08
2023-03-07T14:00:00.544Z,4.60
2023-03-07T14:03:11.125Z,4.47
2023-03-07T14:06:19.593Z,2.53
2023-03-07T14:09:30.849Z,2.42
2023-03-07T14:12:45.136Z,3.80
2023-03-07T14:16:03.802Z,4.13
2023-03-07T14:19:12.997Z,4.95
2023-03-07T14:22:24.788Z,4.53
2023-03-07T14:25:34.608Z,5.60
2023-03-07T14:28:49.863Z,2.85
2023-03-07T14:32:01.682Z,6.30
2023-03-07T14:35:15.385Z,4.22
2023-03-07T14:38:22.462Z,1.42
2023-03-07T14:41:46.203Z,2.90
2023-03-07T14:45:06.267Z,3.33
2023-03-07T14:48:19.493Z,2.30
2023-03-07T14:51:27.137Z,1.80
2023-03-07T14:54:37.109Z,3.85
2023-03-07T14:57:46.353Z,1.92
2023-03-07T15:01:03.135Z,4.38
2023-03-07T15:04:24.852Z,4.32
2023-03-07T15:10:40.930Z,2.72
2023-03-07T15:13:48.389Z,4.93
2023-03-07T15:17:01.389Z,4.22
2023-03-07T15:20:11.366Z,1.85
2023-03-07T15:23:27.915Z,6.32
2023-03-07T15:26:33.850Z,3.70
2023-03-07T15:29:39.609Z,3.80
2023-03-07T15:36:12.065Z,4.15
2023-03-07T15:39:33.306Z,4.03
2023-03-07T15:42:53.187Z,6.07
2023-03-07T15:46:06.338Z,3.35
2023-03-07T15:49:21.613Z,5.55
2023-03-07T15:52:36.720Z,3.47
2023-03-07T15:55:50.949Z,3.45
2023-03-07T15:59:11.144Z,3.30
2023-03-07T16:02:43.028Z,6.30
2023-03-07T16:05:54.309Z,4.77
2023-03-07T16:09:05.170Z,4.35
2023-03-07T16:12:15.197Z,3.35
2023-03-07T16:15:34.665Z,3.30
2023-03-07T16:18:40.885Z,4.07
2023-03-07T16:21:50.681Z,2.05
2023-03-07T16:24:56.835Z,1.13
2023-03-07T16:28:03.646Z,3.22
2023-03-07T16:31:16.383Z,3.45
2023-03-07T16:34:26.482Z,3.72
2023-03-07T16:40:43.170Z,2.60
2023-03-07T16:43:51.157Z,2.38
2023-03-07T16:47:04.180Z,3.95
2023-03-07T16:50:18.204Z,3.60
2023-03-07T16:53:28.223Z,3.70
2023-03-07T16:56:40.978Z,1.75
2023-03-07T16:59:53.439Z,2.08
2023-03-07T17:03:04.186Z,3.78
2023-03-07T17:06:16.887Z,4.93
2023-03-07T17:09:25.921Z,3.05
2023-03-07T17:12:35.204Z,4.85
2023-03-07T17:15:41.369Z,3.28
2023-03-07T17:18:47.001Z,2.30
2023-03-07T17:21:54.303Z,2.30
2023-03-07T17:25:05.390Z,3.47
2023-03-07T17:28:20.359Z,0.77
2023-03-07T17:31:29.887Z,2.72
2023-03-07T17:34:39.005Z,2.55
2023-03-07T17:37:49.525Z,4.85
2023-03-07T17:41:16.918Z,2.63
2023-03-07T17:47:56.624Z,5.47
2023-03-07T17:51:10.227Z,4.38
2023-03-07T17:54:24.664Z,5.18
2023-03-07T17:57:34.220Z,2.50
2023-03-07T18:00:45.327Z,2.83
2023-03-07T18:03:51.427Z,5.03
2023-03-07T18:06:57.511Z,4.63
2023-03-07T18:10:08.287Z,4.80
2023-03-07T18:13:16.533Z,2.53
2023-03-07T18:16:30.683Z,2.88
2023-03-07T18:19:42.282Z,3.20
2023-03-07T18:26:21.164Z,4.30
2023-03-07T18:29:29.675Z,1.02
2023-03-07T18:32:53.935Z,4.55
2023-03-07T18:36:17.036Z,2.55
2023-03-07T18:39:25.194Z,4.07
2023-03-07T18:42:33.868Z,3.95
2023-03-07T18:45:51.311Z,4.80
2023-03-07T18:49:03.210Z,4.15
2023-03-07T18:52:15.580Z,3.72
2023-03-07T18:55:22.418Z,0.70
2023-03-07T18:58:35.456Z,4.05
2023-03-07T19:01:43.554Z,1.70
2023-03-07T19:04:52.078Z,3.03
2023-03-07T19:08:09.267Z,3.10
2023-03-07T19:11:25.817Z,2.30
2023-03-07T19:14:40.267Z,2.03
2023-03-07T19:18:13.741Z,3.85
2023-03-07T19:21:28.654Z,1.48
2023-03-07T19:24:39.995Z,1.85
2023-03-07T19:27:59.427Z,1.10
2023-03-07T19:31:11.950Z,2.15
2023-03-07T19:34:33.711Z,1.55
2023-03-07T19:37:42.767Z,0.90
2023-03-07T19:40:54.863Z,2.78
2023-03-07T19:44:02.847Z,3.00
2023-03-07T19:47:08.388Z,2.85
2023-03-07T19:50:15.217Z,4.13
2023-03-07T19:53:31.570Z,3.10
2023-03-07T19:56:42.802Z,9.82
2023-03-07T19:59:56.881Z,7.13
2023-03-07T20:03:03.319Z,5.18
2023-03-07T20:06:10.639Z,2.05
2023-03-07T20:09:39.850Z,3.60
2023-03-07T20:12:53.782Z,3.50
2023-03-07T20:15:59.427Z,3.30
2023-03-07T20:19:12.023Z,3.05
2023-03-07T20:22:31.685Z,4.22
2023-03-07T20:25:37.606Z,4.47
2023-03-07T20:29:03.209Z,1.67
2023-03-07T20:32:18.533Z,1.73
2023-03-07T20:35:24.372Z,2.88
2023-03-07T20:38:33.662Z,3.13
2023-03-07T20:41:51.881Z,3.20
2023-03-07T20:45:00.354Z,1.83
2023-03-07T20:48:12.257Z,3.35
2023-03-07T20:51:26.884Z,5.63
2023-03-07T20:54:32.264Z,4.18
2023-03-07T20:57:39.245Z,1.38
2023-03-07T21:01:36.514Z,3.60
2023-03-07T21:05:04.830Z,1.95
2023-03-07T21:08:13.674Z,3.42
2023-03-07T21:11:22.198Z,4.57
2023-03-07T21:14:29.847Z,1.65
2023-03-07T21:17:45.239Z,1.05
2023-03-07T21:21:00.726Z,8.00
2023-03-07T21:24:11.345Z,4.63
2023-03-07T21:27:25.305Z,4.05
2023-03-07T21:30:37.744Z,1.23
2023-03-07T21:33:57.507Z,3.05
2023-03-07T21:37:23.258Z,1.10
2023-03-07T21:40:32.816Z,3.30
2023-03-07T21:44:10.770Z,1.02
2023-03-07T21:51:07.668Z,5.60
2023-03-07T21:58:19.825Z,2.63
2023-03-07T22:01:36.152Z,1.80
2023-03-07T22:04:48.487Z,5.88
2023-03-07T22:08:07.926Z,1.17
2023-03-07T22:11:25.929Z,5.30
2023-03-07T22:14:43.451Z,3.42
2023-03-07T22:18:12.838Z,1.88
2023-03-07T22:21:26.851Z,2.00
2023-03-07T22:24:36.578Z,3.20
2023-03-07T22:27:46.475Z,1.65
2023-03-07T22:30:54.908Z,1.35
2023-03-07T22:34:04.264Z,2.83
2023-03-07T22:37:13.355Z,2.55
2023-03-07T22:40:18.796Z,0.45
2023-03-07T22:43:29.204Z,3.40
2023-03-07T22:46:36.780Z,1.33
2023-03-07T22:49:43.919Z,1.98
2023-03-07T22:52:50.020Z,2.63
2023-03-07T22:55:56.182Z,3.72
2023-03-07T22:59:06.124Z,1.45
2023-03-07T23:02:13.920Z,1.67
2023-03-07T23:05:19.088Z,1.08
2023-03-07T23:08:24.665Z,6.05
2023-03-07T23:11:30.599Z,1.20
2023-03-07T23:14:41.832Z,1.38
2023-03-07T23:17:54.998Z,2.58
2023-03-07T23:21:03.798Z,1.17
2023-03-07T23:24:09.376Z,2.58
2023-03-07T23:27:15.352Z,1.75
2023-03-07T23:30:26.694Z,3.65
2023-03-07T23:33:37.468Z,1.23
2023-03-07T23:36:45.309Z,1.15
2023-03-07T23:39:54.917Z,1.70
2023-03-07T23:43:00.007Z,1.48
2023-03-07T23:46:09.781Z,2.65
2023-03-07T23:49:15.053Z,3.53
2023-03-07T23:52:22.031Z,2.72
2023-03-07T23:55:31.176Z,1.80
2023-03-07T23:58:37.904Z,1.70
